createdAt,value
2022-12-17T00:00:15.515Z,-2.30
2022-12-17T00:04:35.516Z,-2.40
2022-12-17T00:08:55.278Z,-2.30
2022-12-17T00:13:15.828Z,-2.30
2022-12-17T00:17:35.723Z,-2.30
2022-12-17T00:21:56.356Z,-2.40
2022-12-17T00:26:16.574Z,-2.50
2022-12-17T00:30:36.120Z,-2.60
2022-12-17T00:34:55.579Z,-2.60
2022-12-17T00:39:16.589Z,-2.70
2022-12-17T00:43:36.596Z,-2.60
2022-12-17T00:47:56.633Z,-2.70
2022-12-17T00:52:16.666Z,-2.80
2022-12-17T00:56:36.377Z,-2.90
2022-12-17T01:00:56.270Z,-2.90
2022-12-17T01:05:16.438Z,-2.90
2022-12-17T01:09:19.704Z,-2.80
2022-12-17T01:13:39.622Z,-2.70
2022-12-17T01:17:59.400Z,-2.80
2022-12-17T01:22:18.914Z,-3.00
2022-12-17T01:26:38.472Z,-3.00
2022-12-17T01:30:57.875Z,-2.90
2022-12-17T01:35:17.647Z,-3.00
2022-12-17T01:39:37.550Z,-3.00
2022-12-17T01:43:57.232Z,-3.10
2022-12-17T01:48:19.797Z,-3.40
2022-12-17T01:52:39.470Z,-3.60
2022-12-17T01:57:01.246Z,-3.70
2022-12-17T02:01:23.099Z,-3.80
2022-12-17T02:05:46.543Z,-3.90
2022-12-17T02:10:18.897Z,-4.20
2022-12-17T02:14:54.986Z,-4.20
2022-12-17T02:19:39.573Z,-4.30
2022-12-17T02:24:06.088Z,-4.60
2022-12-17T02:28:26.893Z,-4.60
2022-12-17T02:32:47.788Z,-4.60
2022-12-17T02:37:07.492Z,-4.60
2022-12-17T02:41:31.018Z,-4.50
2022-12-17T02:45:51.390Z,-4.60
2022-12-17T02:50:12.381Z,-4.70
2022-12-17T02:54:32.184Z,-4.70
2022-12-17T02:58:51.878Z,-4.60
2022-12-17T03:03:11.852Z,-4.60
2022-12-17T03:07:31.603Z,-4.60
2022-12-17T03:11:51.323Z,-4.60
2022-12-17T03:16:10.991Z,-4.60
2022-12-17T03:20:30.773Z,-4.50
2022-12-17T03:24:50.784Z,-4.40
2022-12-17T03:29:10.492Z,-4.40
2022-12-17T03:33:30.254Z,-4.30
2022-12-17T03:37:50.215Z,-4.30
2022-12-17T03:42:09.967Z,-4.50
2022-12-17T03:46:29.753Z,-4.50
2022-12-17T03:50:49.542Z,-4.60
2022-12-17T03:55:09.274Z,-4.70
2022-12-17T03:59:29.212Z,-4.70
2022-12-17T04:03:49.045Z,-4.60
2022-12-17T04:08:09.427Z,-4.80
2022-12-17T04:12:29.371Z,-4.80
2022-12-17T04:16:48.866Z,-4.80
2022-12-17T04:21:08.381Z,-4.70
2022-12-17T04:25:17.536Z,-4.80
2022-12-17T04:29:36.878Z,-4.80
2022-12-17T04:33:56.360Z,-4.90
2022-12-17T04:38:16.274Z,-4.90
2022-12-17T04:42:36.151Z,-4.80
2022-12-17T04:46:56.004Z,-4.80
2022-12-17T04:51:15.640Z,-4.90
2022-12-17T04:55:35.415Z,-4.90
2022-12-17T04:59:55.156Z,-4.80
2022-12-17T05:04:14.946Z,-4.80
2022-12-17T05:08:39.635Z,-4.80
2022-12-17T05:12:55.957Z,-4.90
2022-12-17T05:17:15.445Z,-4.90
2022-12-17T05:21:35.233Z,-5.00
2022-12-17T05:25:55.172Z,-5.00
2022-12-17T05:30:15.014Z,-5.10
2022-12-17T05:34:34.721Z,-5.10
2022-12-17T05:38:54.159Z,-5.10
2022-12-17T05:43:16.561Z,-5.10
2022-12-17T05:47:36.215Z,-5.10
2022-12-17T05:51:56.022Z,-4.90
2022-12-17T05:56:15.711Z,-4.70
2022-12-17T06:00:36.034Z,-4.80
2022-12-17T06:04:45.128Z,-4.80
2022-12-17T06:09:04.874Z,-4.90
2022-12-17T06:13:24.587Z,-5.00
2022-12-17T06:17:44.515Z,-4.90
2022-12-17T06:22:04.246Z,-4.80
2022-12-17T06:26:24.021Z,-4.70
2022-12-17T06:30:43.684Z,-4.60
2022-12-17T06:35:03.423Z,-4.60
2022-12-17T06:39:23.170Z,-4.70
2022-12-17T06:43:42.900Z,-4.70
2022-12-17T06:48:02.381Z,-4.90
2022-12-17T06:52:21.958Z,-4.90
2022-12-17T06:56:41.451Z,-5.00
2022-12-17T07:01:01.363Z,-4.90
2022-12-17T07:05:23.154Z,-4.70
2022-12-17T07:09:42.984Z,-4.60
2022-12-17T07:14:02.703Z,-4.40
2022-12-17T07:18:22.416Z,-4.30
2022-12-17T07:22:42.120Z,-4.30
2022-12-17T07:27:02.062Z,-4.10
2022-12-17T07:31:21.825Z,-4.00
2022-12-17T07:35:41.646Z,-4.00
2022-12-17T07:40:01.416Z,-4.00
2022-12-17T07:44:21.039Z,-4.00
2022-12-17T07:48:40.778Z,-3.90
2022-12-17T07:53:01.355Z,-4.00
2022-12-17T07:57:21.112Z,-3.90
2022-12-17T08:01:40.916Z,-3.90
2022-12-17T08:06:00.602Z,-3.70
2022-12-17T08:10:20.152Z,-3.60
2022-12-17T08:14:39.926Z,-3.70
2022-12-17T08:18:59.554Z,-3.80
2022-12-17T08:23:21.254Z,-3.50
2022-12-17T08:27:40.958Z,-3.70
2022-12-17T08:32:00.507Z,-3.50
2022-12-17T08:36:20.399Z,-3.50
2022-12-17T08:40:40.173Z,-3.50
2022-12-17T08:44:59.863Z,-3.50
2022-12-17T08:49:19.517Z,-3.30
2022-12-17T08:53:39.334Z,-3.00
2022-12-17T08:57:59.341Z,-3.10
2022-12-17T09:02:19.295Z,-3.20
2022-12-17T09:06:39.500Z,-3.10
2022-12-17T09:10:59.336Z,-3.20
2022-12-17T09:15:19.223Z,-3.30
2022-12-17T09:19:38.888Z,-3.10
2022-12-17T09:23:58.489Z,-2.90
2022-12-17T09:28:19.586Z,-2.80
2022-12-17T09:32:39.349Z,-2.20
2022-12-17T09:36:58.893Z,-2.40
2022-12-17T09:41:22.020Z,-2.50
2022-12-17T09:45:45.793Z,-2.50
2022-12-17T09:50:05.453Z,-2.30
2022-12-17T09:54:31.279Z,-2.40
2022-12-17T09:58:54.045Z,-2.30
2022-12-17T10:03:14.267Z,-2.30
2022-12-17T10:07:37.914Z,-2.20
2022-12-17T10:11:57.556Z,-2.10
2022-12-17T10:16:18.079Z,-2.20
2022-12-17T10:21:01.327Z,-1.90
2022-12-17T10:25:24.285Z,-1.80
2022-12-17T10:29:48.003Z,-1.80
2022-12-17T10:34:05.470Z,-2.00
2022-12-17T10:38:37.046Z,-1.70
2022-12-17T10:42:58.012Z,-2.00
2022-12-17T10:47:01.111Z,-1.60
2022-12-17T10:51:22.940Z,-1.50
2022-12-17T10:55:47.625Z,-1.40
2022-12-17T11:00:07.351Z,-1.40
2022-12-17T11:04:48.475Z,-1.40
2022-12-17T11:08:54.564Z,-1.50
2022-12-17T11:13:17.389Z,-1.60
2022-12-17T11:17:37.934Z,-1.40
2022-12-17T11:22:07.312Z,-1.30
2022-12-17T11:26:31.033Z,-1.10
2022-12-17T11:30:54.399Z,-1.20
2022-12-17T11:35:26.477Z,-1.00
2022-12-17T11:39:50.352Z,-1.00
2022-12-17T11:44:19.485Z,-0.90
2022-12-17T11:48:46.233Z,-1.00
2022-12-17T11:53:27.674Z,-1.00
2022-12-17T11:58:18.157Z,-1.00
2022-12-17T12:02:45.111Z,-0.90
2022-12-17T12:07:11.730Z,-0.80
2022-12-17T12:11:47.751Z,-0.60
2022-12-17T12:16:31.040Z,-0.70
2022-12-17T12:21:12.360Z,-0.50
2022-12-17T12:25:39.188Z,-0.60
2022-12-17T12:30:17.853Z,-0.50
2022-12-17T12:34:41.504Z,-0.40
2022-12-17T12:39:02.053Z,0.00
2022-12-17T12:43:27.200Z,0.30
2022-12-17T12:47:51.012Z,0.40
2022-12-17T12:52:13.756Z,0.20
2022-12-17T12:56:54.367Z,0.30
2022-12-17T13:01:14.184Z,0.60
2022-12-17T13:05:33.714Z,0.30
2022-12-17T13:09:41.604Z,1.20
2022-12-17T13:13:48.488Z,0.70
2022-12-17T13:17:59.456Z,0.20
2022-12-17T13:22:24.110Z,-0.60
2022-12-17T13:26:26.590Z,-0.60
2022-12-17T13:30:36.838Z,-0.60
2022-12-17T13:34:50.482Z,-0.80
2022-12-17T13:38:55.471Z,-0.70
2022-12-17T13:42:57.172Z,-0.80
2022-12-17T13:47:00.270Z,-0.70
2022-12-17T13:51:04.527Z,-1.20
2022-12-17T13:55:09.470Z,-1.00
2022-12-17T13:59:22.151Z,-0.80
2022-12-17T14:03:42.985Z,-1.00
2022-12-17T14:07:28.196Z,-1.00
2022-12-17T14:11:49.241Z,-1.20
2022-12-17T14:15:52.241Z,-1.20
2022-12-17T14:19:59.832Z,-1.20
2022-12-17T14:24:01.984Z,-1.00
2022-12-17T14:28:25.247Z,-1.00
2022-12-17T14:32:35.842Z,-1.10
2022-12-17T14:36:39.320Z,-1.10
2022-12-17T14:40:40.614Z,-1.10
2022-12-17T14:44:54.834Z,-1.20
2022-12-17T14:49:01.335Z,-1.20
2022-12-17T14:53:06.307Z,-1.20
2022-12-17T14:57:11.367Z,-1.10
2022-12-17T15:01:13.377Z,-1.20
2022-12-17T15:05:15.776Z,-1.30
2022-12-17T15:09:17.003Z,-1.50
2022-12-17T15:13:18.207Z,-1.60
2022-12-17T15:17:19.388Z,-1.70
2022-12-17T15:21:21.440Z,-1.70
2022-12-17T15:25:23.363Z,-1.50
2022-12-17T15:29:25.564Z,-1.60
2022-12-17T15:33:27.530Z,-1.70
2022-12-17T15:37:29.547Z,-1.70
2022-12-17T15:41:49.912Z,-1.60
2022-12-17T15:45:52.408Z,-1.50
2022-12-17T15:49:54.082Z,-1.60
2022-12-17T15:53:56.586Z,-1.80
2022-12-17T15:57:58.501Z,-2.00
2022-12-17T16:02:00.409Z,-1.90
2022-12-17T16:06:02.469Z,-1.80
2022-12-17T16:10:05.869Z,-1.80
2022-12-17T16:14:07.206Z,-1.80
2022-12-17T16:18:08.504Z,-1.90
2022-12-17T16:22:09.664Z,-2.00
2022-12-17T16:26:11.067Z,-1.90
2022-12-17T16:30:13.554Z,-1.90
2022-12-17T16:34:15.317Z,-2.10
2022-12-17T16:38:16.802Z,-2.20
2022-12-17T16:42:17.906Z,-2.00
2022-12-17T16:46:28.976Z,-2.00
2022-12-17T16:50:30.289Z,-2.20
2022-12-17T16:54:32.951Z,-2.10
2022-12-17T16:58:34.605Z,-2.10
2022-12-17T17:02:36.470Z,-2.20
2022-12-17T17:06:40.625Z,-2.10
2022-12-17T17:10:42.223Z,-2.00
2022-12-17T17:14:43.825Z,-2.00
2022-12-17T17:18:45.927Z,-2.10
2022-12-17T17:22:47.034Z,-2.20
2022-12-17T17:26:49.735Z,-2.20
2022-12-17T17:30:55.075Z,-2.20
2022-12-17T17:34:56.240Z,-2.00
2022-12-17T17:38:59.345Z,-2.20
2022-12-17T17:43:01.072Z,-2.30
2022-12-17T17:47:03.018Z,-2.40
2022-12-17T17:51:08.139Z,-2.60
2022-12-17T17:55:09.920Z,-2.50
2022-12-17T17:59:14.000Z,-2.60
2022-12-17T18:03:15.736Z,-2.50
2022-12-17T18:07:25.379Z,-2.50
2022-12-17T18:11:23.491Z,-2.60
2022-12-17T18:15:25.404Z,-2.70
2022-12-17T18:19:26.909Z,-2.70
2022-12-17T18:23:28.434Z,-2.50
2022-12-17T18:27:30.167Z,-2.40
2022-12-17T18:31:31.538Z,-2.40
2022-12-17T18:35:33.740Z,-2.70
2022-12-17T18:39:35.576Z,-2.80
2022-12-17T18:43:39.318Z,-2.90
2022-12-17T18:47:42.186Z,-2.80
2022-12-17T18:51:46.852Z,-2.80
2022-12-17T18:55:48.794Z,-3.00
2022-12-17T18:59:50.074Z,-3.20
2022-12-17T19:03:52.737Z,-3.20
2022-12-17T19:07:54.543Z,-3.40
2022-12-17T19:11:56.869Z,-3.20
2022-12-17T19:16:04.755Z,-3.10
2022-12-17T19:20:07.093Z,-3.00
2022-12-17T19:24:15.063Z,-2.80
2022-12-17T19:28:17.454Z,-2.70
2022-12-17T19:32:18.621Z,-3.00
2022-12-17T19:36:26.578Z,-3.10
2022-12-17T19:40:24.010Z,-3.10
2022-12-17T19:44:26.438Z,-3.20
2022-12-17T19:48:29.859Z,-3.00
2022-12-17T19:52:31.547Z,-3.00
2022-12-17T19:56:34.067Z,-2.90
2022-12-17T20:00:37.983Z,-2.90
2022-12-17T20:04:41.702Z,-3.00
2022-12-17T20:08:43.778Z,-3.00
2022-12-17T20:12:45.540Z,-3.20
2022-12-17T20:16:50.478Z,-3.10
2022-12-17T20:20:52.831Z,-3.20
2022-12-17T20:24:53.988Z,-3.20
2022-12-17T20:28:56.206Z,-3.00
2022-12-17T20:32:57.326Z,-3.00
2022-12-17T20:37:01.866Z,-3.20
2022-12-17T20:41:11.107Z,-3.20
2022-12-17T20:45:15.375Z,-3.20
2022-12-17T20:49:20.517Z,-3.30
2022-12-17T20:53:22.128Z,-3.30
2022-12-17T20:57:23.827Z,-3.20
2022-12-17T21:01:27.527Z,-3.10
2022-12-17T21:05:29.044Z,-3.30
2022-12-17T21:09:30.476Z,-3.40
2022-12-17T21:13:32.752Z,-3.40
2022-12-17T21:17:33.921Z,-3.60
2022-12-17T21:21:36.898Z,-3.60
2022-12-17T21:25:38.298Z,-3.60
2022-12-17T21:29:39.760Z,-3.80
2022-12-17T21:33:41.061Z,-3.80
2022-12-17T21:37:42.770Z,-3.60
2022-12-17T21:41:49.900Z,-3.50
2022-12-17T21:45:55.023Z,-3.70
2022-12-17T21:49:56.221Z,-3.40
2022-12-17T21:54:00.281Z,-3.40
2022-12-17T21:58:02.453Z,-3.40
2022-12-17T22:02:03.818Z,-3.40
2022-12-17T22:06:07.342Z,-3.40
2022-12-17T22:10:38.562Z,-3.60
2022-12-17T22:14:17.201Z,-3.60
2022-12-17T22:18:15.514Z,-3.70
2022-12-17T22:22:16.654Z,-3.60
2022-12-17T22:26:19.415Z,-3.70
2022-12-17T22:30:39.293Z,-3.70
2022-12-17T22:35:41.083Z,-4.00
2022-12-17T22:41:27.968Z,-4.10
2022-12-17T22:44:40.697Z,-4.10
2022-12-17T22:47:10.726Z,-4.10
2022-12-17T22:51:25.105Z,-4.00
2022-12-17T22:55:16.942Z,-4.00
2022-12-17T22:59:18.953Z,-4.10
2022-12-17T23:03:20.307Z,-4.10
2022-12-17T23:07:24.569Z,-4.00
2022-12-17T23:11:26.433Z,-4.10
2022-12-17T23:15:31.441Z,-4.30
2022-12-17T23:19:32.674Z,-4.30
2022-12-17T23:23:33.915Z,-4.20
2022-12-17T23:27:35.052Z,-4.40
2022-12-17T23:31:39.402Z,-4.40
2022-12-17T23:35:40.663Z,-4.30
2022-12-17T23:39:41.960Z,-4.40
2022-12-17T23:43:44.172Z,-4.40
2022-12-17T23:47:45.352Z,-4.30
2022-12-17T23:51:46.442Z,-4.30
2022-12-17T23:55:48.726Z,-4.30
2022-12-17T23:59:49.926Z,-4.30
